»·PEaware :: N611G L52-KSMO

N611G :: L52-KSMO

FLIGHT INFORMATION

Flight Status: Arrived
Operator: Privately registered:
United States
More flights under this callsign
Pilot: Lance W. (1958)
Aircraft: Unknown
(LNC4)
More flights by this aircraft type
Origin: L52 Oceano Co
United States
Destination: KSMO Santa Monica Mun
United States
More flights between these airports :: More routes between these airports
Route: DCT
File this flight plan on PilotEdge
Remarks: / V /
Altitude:
(Current/Filed)
3,000ft
Speed:
(Current/Filed)
180kts
Departed: 26-May-13 07:39 PM
Arrived: 26-May-13 08:28 PM
Distance/Time
Traveled:
125nm/0:49
Distance/Time
To Go:
Arrived

Flight Plot

Page will automatically refresh every two minutes.


Map Options




Map Legend


Flown Route
Filed Route
Departure Airport
Arrival Airport
Navaid (VOR, NDB)
Fix

Horizontal Profiles

Position Reports

Time Latitude Longitude Heading Altitude Ground
Speed
26-May-13 19:32 35.103018 -120.623449 34 17ft 0kts
26-May-13 19:33 35.103018 -120.623449 34 17ft 0kts
26-May-13 19:34 35.102898 -120.623549 34 17ft 0kts
26-May-13 19:35 35.103059 -120.623414 34 17ft 0kts
26-May-13 19:36 35.102745 -120.623677 34 17ft 0kts
26-May-13 19:37 35.102774 -120.623654 29 17ft 2kts
26-May-13 19:38 35.101967 -120.622398 197 17ft 0kts
26-May-13 19:39 35.101869 -120.622448 203 17ft 2kts
26-May-13 19:40 35.108008 -120.638066 270 598ft 111kts
26-May-13 19:41 35.086008 -120.676680 188 1665ft 197kts
26-May-13 19:42 35.045348 -120.626415 124 2206ft 239kts
26-May-13 19:43 34.997301 -120.570918 99 2512ft 249kts
26-May-13 19:44 35.037142 -120.520075 354 2516ft 240kts
26-May-13 19:45 35.071309 -120.579857 275 2510ft 234kts
26-May-13 19:46 35.054215 -120.653737 217 2471ft 253kts
26-May-13 19:47 34.985297 -120.681659 197 1679ft 266kts
26-May-13 19:48 34.914986 -120.705805 198 1027ft 254kts
26-May-13 19:49 34.846481 -120.710237 179 1009ft 243kts
26-May-13 19:50 34.779846 -120.706492 179 1010ft 238kts
26-May-13 19:51 34.714032 -120.702748 179 1009ft 236kts
26-May-13 19:52 34.648134 -120.699017 179 1016ft 237kts
26-May-13 19:53 34.581715 -120.694997 179 1020ft 240kts
26-May-13 19:54 34.517596 -120.678773 139 1028ft 244kts
26-May-13 19:55 34.445859 -120.590820 133 1003ft 245kts
26-May-13 19:57 34.374992 -120.501701 133 999ft 245kts
26-May-13 19:58 34.327586 -120.442121 133 999ft 245kts
26-May-13 19:59 34.280339 -120.382791 133 1000ft 245kts
26-May-13 20:00 34.233133 -120.323493 133 982ft 244kts
26-May-13 20:01 34.193823 -120.257371 123 920ft 241kts
26-May-13 20:02 34.157604 -120.189875 123 869ft 237kts
26-May-13 20:03 34.127637 -120.121242 87 925ft 233kts
26-May-13 20:04 34.139097 -120.044767 95 1008ft 232kts
26-May-13 20:05 34.130363 -119.967540 91 1010ft 232kts
26-May-13 20:06 34.132147 -119.889354 88 1006ft 233kts
26-May-13 20:07 34.136714 -119.811304 90 990ft 234kts
26-May-13 20:08 34.134722 -119.733214 92 979ft 232kts
26-May-13 20:09 34.132514 -119.655461 92 1000ft 231kts
26-May-13 20:10 34.120350 -119.579900 104 1002ft 230kts
26-May-13 20:11 34.100878 -119.505958 110 999ft 233kts
26-May-13 20:12 34.079358 -119.433741 111 1193ft 227kts
26-May-13 20:13 34.057388 -119.361494 112 1199ft 232kts
26-May-13 20:14 34.033450 -119.288745 112 1199ft 234kts
26-May-13 20:15 34.008667 -119.215804 112 1199ft 236kts
26-May-13 20:16 33.984640 -119.141700 107 1194ft 237kts
26-May-13 20:17 33.978180 -119.063776 78 1203ft 236kts
26-May-13 20:18 33.988513 -118.985705 84 1217ft 237kts
26-May-13 20:19 33.992912 -118.906144 85 1209ft 238kts
26-May-13 20:20 33.996967 -118.826765 85 1208ft 237kts
26-May-13 20:21 34.000984 -118.747208 86 1209ft 237kts
26-May-13 20:22 34.004899 -118.668706 86 1194ft 224kts
26-May-13 20:23 34.008185 -118.601864 85 1190ft 180kts
26-May-13 20:24 34.010827 -118.547583 85 1192ft 137kts
26-May-13 20:25 34.015244 -118.504846 47 1169ft 115kts
26-May-13 20:26 34.036387 -118.480494 40 1193ft 101kts
26-May-13 20:27 34.052391 -118.454531 124 1181ft 104kts
26-May-13 20:28 34.032367 -118.434864 197 717ft 94kts
26-May-13 20:29 34.016191 -118.451099 243 178ft 35kts
26-May-13 20:30 34.015907 -118.452798 228 178ft 0kts
26-May-13 20:31 34.015907 -118.452798 228 178ft 0kts
26-May-13 20:32 34.015907 -118.452798 228 178ft 0kts
26-May-13 20:33 34.015907 -118.452798 228 178ft 0kts
26-May-13 20:34 34.015907 -118.452798 228 178ft 0kts
26-May-13 20:35 34.015907 -118.452798 228 178ft 0kts

Navigation Log

Ident Type
Flight plan parsing failed, navigation log unavailable